Inez Cenac — WDI2520 — position and weather

sailwx.info

Track history (hours):
 
Tides and Currents Weather Stations Pressure Air Temp Water Temp Dewpoint Dewpoint Depression Visibility Wind Speed Wind Dir Waves Ship Positions

Inez Cenac

Owner: Cenac Marine Services, Houma, LA. More information available from US FCC via Universal Licensing System and Coast Guard Vessel Documentation Center.

Last reported at 2018-Feb-21 13:27 UTC. Time now 2018-Feb-22 22:58 UTC.
Position N 29°50' W 091°58'.

Length 22 m; draft 2.4 m.

Type: Tug. MMSI: 367679030.

Date/timePositionNaut miles runAvg speedWind from/ knotsBaromVisibWave heightAir tempDewpointWater temp
2018-Feb-21 13:27N 29°50' W 091°58'2 5.1
2018-Feb-21 13:00N 29°50' W 092°01'2 4.9
2018-Feb-21 12:30N 29°49' W 092°03'3 4.9
2018-Feb-21 11:59N 29°48' W 092°06'2 4.4
2018-Feb-21 11:31N 29°47' W 092°08'2 4.9
2018-Feb-21 11:00N 29°47' W 092°11'2 4.0
2018-Feb-21 10:30N 29°47' W 092°13'0 0.8
2018-Feb-21 10:00N 29°48' W 092°14'2 4.3
2018-Feb-21 09:30N 29°48' W 092°16'2 4.6
2018-Feb-21 09:00N 29°50' W 092°18'3 4.7
2018-Feb-21 08:28N 29°51' W 092°21'36 4.4
2018-Feb-21 00:23N 29°56' W 093°02'2 4.4
2018-Feb-21 00:00N 29°56' W 093°04'2 3.9
2018-Feb-20 23:29N 29°56' W 093°06'2 4.3
2018-Feb-20 23:00N 29°56' W 093°08'2 4.2
2018-Feb-20 22:30N 29°57' W 093°10'2 4.6
2018-Feb-20 22:00N 29°59' W 093°12'2 4.4
2018-Feb-20 21:30N 30°01' W 093°14'2 3.7
2018-Feb-20 21:00N 30°02' W 093°15'1 2.9
2018-Feb-20 20:31N 30°03' W 093°16'2 4.1
2018-Feb-20 20:00N 30°05' W 093°17'1 1.5
2018-Feb-20 19:30N 30°05' W 093°18'1 1.3
2018-Feb-20 19:00N 30°06' W 093°18'0 0.1
2018-Feb-20 18:30N 30°06' W 093°18'0 0.0
2018-Feb-20 18:00N 30°06' W 093°18'0 0.0
2018-Feb-20 17:30N 30°06' W 093°18'0 0.0
2018-Feb-20 17:00N 30°06' W 093°18'0 0.0
2018-Feb-20 16:30N 30°06' W 093°18'0 0.1
2018-Feb-20 16:00N 30°06' W 093°18'0 0.0
2018-Feb-20 15:30N 30°06' W 093°18'0 0.1
2018-Feb-20 15:00N 30°06' W 093°18'1 1.5
2018-Feb-20 14:30N 30°06' W 093°19'2 3.9
2018-Feb-20 14:00N 30°04' W 093°20'2 3.1
2018-Feb-20 13:30N 30°04' W 093°22'2 3.7
2018-Feb-20 13:00N 30°04' W 093°24'2 4.5
2018-Feb-20 12:30N 30°04' W 093°27'2 4.8
2018-Feb-20 12:00N 30°04' W 093°29'2 4.6
2018-Feb-20 11:30N 30°04' W 093°32'2 4.6
2018-Feb-20 11:00N 30°04' W 093°35'3 4.9
2018-Feb-20 10:28N 30°04' W 093°38'3 5.2
2018-Feb-20 09:59N 30°04' W 093°41'2 4.7
2018-Feb-20 09:31N 30°03' W 093°43'3 4.9
2018-Feb-20 08:59N 30°01' W 093°45'3 5.2
2018-Feb-20 08:30N 29°59' W 093°47'3 5.8
2018-Feb-20 08:00N 29°58' W 093°51'3 5.2
2018-Feb-20 07:30N 29°59' W 093°53'3 6.7
2018-Feb-20 07:01N 29°60' W 093°57'2 3.6
2018-Feb-20 06:28N 30°01' W 093°59'0 0.8
2018-Feb-20 05:58N 30°01' W 093°59'0 0.1
2018-Feb-20 05:28N 30°01' W 093°59'0 0.0
2018-Feb-20 04:58N 30°01' W 093°59'0 0.0
2018-Feb-20 04:28N 30°01' W 093°59'0 0.0
2018-Feb-20 03:55N 30°01' W 093°59'0 0.0
2018-Feb-20 03:28N 30°01' W 093°59'0 0.0
2018-Feb-20 02:58N 30°01' W 093°59'0 0.0
2018-Feb-20 02:28N 30°01' W 093°59'0 0.0
2018-Feb-20 01:58N 30°01' W 093°59'0 0.0
2018-Feb-20 01:28N 30°01' W 093°59'0 0.0
2018-Feb-20 00:58N 30°01' W 093°59'0 0.0
2018-Feb-20 00:28N 30°01' W 093°59'0 0.0
2018-Feb-19 23:58N 30°01' W 093°59'0 0.0
2018-Feb-19 23:28N 30°01' W 093°59'0 0.0
2018-Feb-19 22:58N 30°01' W 093°59'0 0.0
2018-Feb-19 22:28N 30°01' W 093°59'0 0.0
2018-Feb-19 21:58N 30°01' W 093°59'0 0.0
2018-Feb-19 21:22N 30°01' W 093°59'0 0.0
2018-Feb-19 20:58N 30°01' W 093°59'0 0.0
2018-Feb-19 20:28N 30°01' W 093°59'0 0.0
2018-Feb-19 19:58N 30°01' W 093°59'0 0.0
2018-Feb-19 19:28N 30°01' W 093°59'0 0.0
2018-Feb-19 18:58N 30°01' W 093°59'0 0.0
2018-Feb-19 18:28N 30°01' W 093°59'0 0.0
2018-Feb-19 17:58N 30°01' W 093°59'0 0.0
2018-Feb-19 17:28N 30°01' W 093°59'0 0.0
2018-Feb-19 16:58N 30°01' W 093°59'0 0.0
2018-Feb-19 16:28N 30°01' W 093°59'0 0.0
2018-Feb-19 15:58N 30°01' W 093°59'0 0.0
2018-Feb-19 15:28N 30°01' W 093°59'0 0.0
2018-Feb-19 14:58N 30°01' W 093°59'0 0.0
2018-Feb-19 14:28N 30°01' W 093°59'0 0.0
2018-Feb-19 13:55N 30°01' W 093°59'0 0.0
2018-Feb-19 13:28N 30°01' W 093°59'0 0.0
2018-Feb-19 12:58N 30°01' W 093°59'0 0.0
2018-Feb-19 12:25N 30°01' W 093°59'0 0.0
2018-Feb-19 11:58N 30°01' W 093°59'0 0.0
2018-Feb-19 11:28N 30°01' W 093°59'0 0.0
2018-Feb-19 10:58N 30°01' W 093°59'1 1.3
2018-Feb-19 10:30N 30°01' W 093°59'0 0.2
2018-Feb-19 10:00N 30°01' W 093°59'0 0.0
2018-Feb-19 09:30N 30°01' W 093°59'0 0.0
2018-Feb-19 09:00N 30°01' W 093°59'0 0.0
2018-Feb-19 08:24N 30°01' W 093°59'0 0.0
2018-Feb-19 08:00N 30°01' W 093°59'0 0.0
2018-Feb-19 07:30N 30°01' W 093°59'0 0.0
2018-Feb-19 07:00N 30°01' W 093°59'0 0.0
2018-Feb-19 06:30N 30°01' W 093°59'0 0.0
2018-Feb-19 06:00N 30°01' W 093°59'0 0.0
2018-Feb-19 05:30N 30°01' W 093°59'0 0.0
2018-Feb-19 05:00N 30°01' W 093°59'0 0.0
2018-Feb-19 04:30N 30°01' W 093°59'0 0.0
2018-Feb-19 04:00N 30°01' W 093°59'0 0.0
2018-Feb-19 03:30N 30°01' W 093°59'0 0.0
2018-Feb-19 03:00N 30°01' W 093°59'0 0.0
2018-Feb-19 02:30N 30°01' W 093°59'0 0.0
2018-Feb-19 02:00N 30°01' W 093°59'0 0.0
2018-Feb-19 01:30N 30°01' W 093°59'0 0.0
2018-Feb-19 01:00N 30°01' W 093°59'0 0.0
2018-Feb-19 00:30N 30°01' W 093°59'0 0.0
2018-Feb-18 23:59N 30°01' W 093°59'0 0.0
2018-Feb-18 23:30N 30°01' W 093°59'0 0.0
2018-Feb-18 23:00N 30°01' W 093°59'0 0.0
2018-Feb-18 22:30N 30°01' W 093°59'0 0.0
2018-Feb-18 22:00N 30°01' W 093°59'0 0.0
2018-Feb-18 21:30N 30°01' W 093°59'0 0.0
2018-Feb-18 20:58N 30°01' W 093°59'0 0.0
2018-Feb-18 20:30N 30°01' W 093°59'0 0.0
2018-Feb-18 20:00N 30°01' W 093°59'0 0.0
2018-Feb-18 19:30N 30°01' W 093°59'0 0.0
2018-Feb-18 19:00N 30°01' W 093°59'0 0.0
2018-Feb-18 18:30N 30°01' W 093°59'0 0.0
2018-Feb-18 18:00N 30°01' W 093°59'0 0.0
2018-Feb-18 17:30N 30°01' W 093°59'0 0.5
2018-Feb-18 17:00N 30°01' W 093°59'1 2.9
2018-Feb-18 16:30N 30°01' W 093°57'3 6.9
2018-Feb-18 16:00N 29°59' W 093°54'3 5.2
2018-Feb-18 15:30N 29°58' W 093°51'3 6.6
2018-Feb-18 15:00N 29°59' W 093°47'1 1.1
2018-Feb-18 14:30N 29°60' W 093°47'0 0.9
2018-Feb-18 14:00N 29°60' W 093°46'0 0.0
2018-Feb-18 13:30N 29°60' W 093°46'0 0.0
2018-Feb-18 13:00N 29°60' W 093°46'0 0.0
2018-Feb-18 12:30N 29°60' W 093°46'0 0.0
2018-Feb-18 12:00N 29°60' W 093°46'0 0.0
2018-Feb-18 11:29N 29°60' W 093°46'0 0.0
2018-Feb-18 11:00N 29°60' W 093°46'0 0.0
2018-Feb-18 10:30N 29°60' W 093°46'0 0.0
2018-Feb-18 09:58N 29°60' W 093°46'0 0.0
2018-Feb-18 09:29N 29°60' W 093°46'0 0.0
2018-Feb-18 09:00N 29°60' W 093°46'0 0.0
2018-Feb-18 08:30N 29°60' W 093°46'0 0.0
2018-Feb-18 08:00N 29°60' W 093°46'0 0.0
2018-Feb-18 07:30N 29°60' W 093°46'0 0.0
2018-Feb-18 07:00N 29°60' W 093°46'0 0.0
2018-Feb-18 06:30N 29°60' W 093°46'0 0.0
2018-Feb-18 06:00N 29°60' W 093°46'0 0.0
2018-Feb-18 05:30N 29°60' W 093°46'0 0.0
2018-Feb-18 05:00N 29°60' W 093°46'0 0.0
2018-Feb-18 04:30N 29°60' W 093°46'0 0.0
2018-Feb-18 04:00N 29°60' W 093°46'0 0.0
2018-Feb-18 03:28N 29°60' W 093°46'0 0.0
2018-Feb-18 03:00N 29°60' W 093°46'0 0.0
2018-Feb-18 02:30N 29°60' W 093°46'0 0.1
2018-Feb-18 02:00N 29°60' W 093°46'0 0.4
2018-Feb-18 01:30N 29°60' W 093°46'2 3.6
2018-Feb-18 01:00N 30°01' W 093°45'3 6.3
2018-Feb-18 00:30N 30°03' W 093°42'3 6.7
2018-Feb-18 00:00N 30°04' W 093°39'3 6.5
2018-Feb-17 23:29N 30°04' W 093°35'3 6.0
2018-Feb-17 23:00N 30°04' W 093°31'3 6.3
2018-Feb-17 22:30N 30°04' W 093°28'3 6.1
2018-Feb-17 22:00N 30°04' W 093°24'2 4.8
2018-Feb-17 21:30N 30°04' W 093°21'2 4.4
2018-Feb-17 21:00N 30°05' W 093°20'2 3.8
2018-Feb-17 20:30N 30°05' W 093°17'2 3.3
2018-Feb-17 20:00N 30°04' W 093°16'1 1.3
2018-Feb-17 19:30N 30°04' W 093°16'0 0.1
2018-Feb-17 19:00N 30°03' W 093°16'0 0.0
2018-Feb-17 18:30N 30°03' W 093°16'0 0.0
2018-Feb-17 18:00N 30°03' W 093°16'1 2.0
2018-Feb-17 17:30N 30°02' W 093°16'3 5.8
2018-Feb-17 17:00N 30°00' W 093°14'3 5.9
2018-Feb-17 16:30N 29°58' W 093°11'3 6.2
2018-Feb-17 16:00N 29°56' W 093°08'12 1.1
2018-Feb-17 05:20N 29°56' W 092°54'29 4.3
2018-Feb-16 22:34N 29°51' W 092°22'0 2.3
2018-Feb-16 22:30N 29°51' W 092°21'3 5.3
2018-Feb-16 21:59N 29°50' W 092°18'2 3.8
2018-Feb-16 21:30N 29°49' W 092°17'3 5.8
2018-Feb-16 21:00N 29°48' W 092°14'2 3.9
2018-Feb-16 20:30N 29°47' W 092°12'2 4.5
2018-Feb-16 20:00N 29°47' W 092°09'3 6.1
2018-Feb-16 19:30N 29°48' W 092°06'3 6.1
2018-Feb-16 19:00N 29°49' W 092°03'  
2018-Feb-12 17:28N 29°50' W 091°59'2 4.4
2018-Feb-12 17:00N 29°49' W 092°01'2 4.7
2018-Feb-12 16:30N 29°48' W 092°04'2 4.7
2018-Feb-12 16:00N 29°48' W 092°06'2 3.9
2018-Feb-12 15:30N 29°47' W 092°09'2 4.7
2018-Feb-12 15:00N 29°47' W 092°11'2 4.9
2018-Feb-12 14:30N 29°48' W 092°14'2 3.7
2018-Feb-12 14:01N 29°48' W 092°16'2 4.6
2018-Feb-12 13:30N 29°50' W 092°18'39 4.3
2018-Feb-12 04:32N 29°56' W 093°02'0 4.5
2018-Feb-12 04:26N 29°56' W 093°02'2 3.8
2018-Feb-12 03:55N 29°56' W 093°05'2 4.3
2018-Feb-12 03:30N 29°56' W 093°07'2 4.4
2018-Feb-12 02:58N 29°56' W 093°09'2 3.5
2018-Feb-12 02:29N 29°57' W 093°11'2 3.4
2018-Feb-12 02:00N 29°59' W 093°12'2 4.3
2018-Feb-12 01:29N 30°00' W 093°14'2 3.6
2018-Feb-12 01:00N 30°02' W 093°15'2 3.4
2018-Feb-12 00:30N 30°03' W 093°16'2 4.3
2018-Feb-12 00:00N 30°05' W 093°17'2 3.4
2018-Feb-11 23:30N 30°06' W 093°18'2 4.6
2018-Feb-11 23:00N 30°05' W 093°20'2 3.4
2018-Feb-11 22:30N 30°04' W 093°22'2 4.3
2018-Feb-11 22:00N 30°04' W 093°24'2 3.3
2018-Feb-11 21:29N 30°04' W 093°27'2 4.3
2018-Feb-11 20:54N 30°04' W 093°29'2 4.3
2018-Feb-11 20:29N 30°04' W 093°31'10 4.0
2018-Feb-11 17:53N 30°03' W 093°43'2 4.1
2018-Feb-11 17:30N 30°02' W 093°44'2 4.4
2018-Feb-11 16:58N 30°00' W 093°46'2 4.3
2018-Feb-11 16:28N 29°59' W 093°48'2 5.1
2018-Feb-11 16:00N 29°58' W 093°51'2 4.7
2018-Feb-11 15:30N 29°59' W 093°54'3 6.5
2018-Feb-11 15:00N 30°00' W 093°57'2 3.6
2018-Feb-11 14:30N 30°01' W 093°59'0 0.3
2018-Feb-11 14:00N 30°01' W 093°59'0 0.0
2018-Feb-11 13:30N 30°01' W 093°59'  
Track history (hours):
 
Tides and Currents Weather Stations Pressure Air Temp Water Temp Dewpoint Dewpoint Depression Visibility Wind Speed Wind Dir Waves Ship Positions

Inez Cenac

Owner: Cenac Marine Services, Houma, LA. More information available from US FCC via Universal Licensing System and Coast Guard Vessel Documentation Center.

Last reported at 2018-Feb-21 13:27 UTC. Time now 2018-Feb-22 22:58 UTC.
Position N 29°50' W 091°58'.

Length 22 m; draft 2.4 m.

Type: Tug. MMSI: 367679030.

Date/timePositionNaut miles runAvg speedWind from/ knotsBaromVisibWave heightAir tempDewpointWater temp
2018-Feb-21 13:27N 29°50' W 091°58'2 5.1
2018-Feb-21 13:00N 29°50' W 092°01'2 4.9
2018-Feb-21 12:30N 29°49' W 092°03'3 4.9
2018-Feb-21 11:59N 29°48' W 092°06'2 4.4
2018-Feb-21 11:31N 29°47' W 092°08'2 4.9
2018-Feb-21 11:00N 29°47' W 092°11'2 4.0
2018-Feb-21 10:30N 29°47' W 092°13'0 0.8
2018-Feb-21 10:00N 29°48' W 092°14'2 4.3
2018-Feb-21 09:30N 29°48' W 092°16'2 4.6
2018-Feb-21 09:00N 29°50' W 092°18'3 4.7
2018-Feb-21 08:28N 29°51' W 092°21'36 4.4
2018-Feb-21 00:23N 29°56' W 093°02'2 4.4
2018-Feb-21 00:00N 29°56' W 093°04'2 3.9
2018-Feb-20 23:29N 29°56' W 093°06'2 4.3
2018-Feb-20 23:00N 29°56' W 093°08'2 4.2
2018-Feb-20 22:30N 29°57' W 093°10'2 4.6
2018-Feb-20 22:00N 29°59' W 093°12'2 4.4
2018-Feb-20 21:30N 30°01' W 093°14'2 3.7
2018-Feb-20 21:00N 30°02' W 093°15'1 2.9
2018-Feb-20 20:31N 30°03' W 093°16'2 4.1
2018-Feb-20 20:00N 30°05' W 093°17'1 1.5
2018-Feb-20 19:30N 30°05' W 093°18'1 1.3
2018-Feb-20 19:00N 30°06' W 093°18'0 0.1
2018-Feb-20 18:30N 30°06' W 093°18'0 0.0
2018-Feb-20 18:00N 30°06' W 093°18'0 0.0
2018-Feb-20 17:30N 30°06' W 093°18'0 0.0
2018-Feb-20 17:00N 30°06' W 093°18'0 0.0
2018-Feb-20 16:30N 30°06' W 093°18'0 0.1
2018-Feb-20 16:00N 30°06' W 093°18'0 0.0
2018-Feb-20 15:30N 30°06' W 093°18'0 0.1
2018-Feb-20 15:00N 30°06' W 093°18'1 1.5
2018-Feb-20 14:30N 30°06' W 093°19'2 3.9
2018-Feb-20 14:00N 30°04' W 093°20'2 3.1
2018-Feb-20 13:30N 30°04' W 093°22'2 3.7
2018-Feb-20 13:00N 30°04' W 093°24'2 4.5
2018-Feb-20 12:30N 30°04' W 093°27'2 4.8
2018-Feb-20 12:00N 30°04' W 093°29'2 4.6
2018-Feb-20 11:30N 30°04' W 093°32'2 4.6
2018-Feb-20 11:00N 30°04' W 093°35'3 4.9
2018-Feb-20 10:28N 30°04' W 093°38'3 5.2
2018-Feb-20 09:59N 30°04' W 093°41'2 4.7
2018-Feb-20 09:31N 30°03' W 093°43'3 4.9
2018-Feb-20 08:59N 30°01' W 093°45'3 5.2
2018-Feb-20 08:30N 29°59' W 093°47'3 5.8
2018-Feb-20 08:00N 29°58' W 093°51'3 5.2
2018-Feb-20 07:30N 29°59' W 093°53'3 6.7
2018-Feb-20 07:01N 29°60' W 093°57'2 3.6
2018-Feb-20 06:28N 30°01' W 093°59'0 0.8
2018-Feb-20 05:58N 30°01' W 093°59'0 0.1
2018-Feb-20 05:28N 30°01' W 093°59'0 0.0
2018-Feb-20 04:58N 30°01' W 093°59'0 0.0
2018-Feb-20 04:28N 30°01' W 093°59'0 0.0
2018-Feb-20 03:55N 30°01' W 093°59'0 0.0
2018-Feb-20 03:28N 30°01' W 093°59'0 0.0
2018-Feb-20 02:58N 30°01' W 093°59'0 0.0
2018-Feb-20 02:28N 30°01' W 093°59'0 0.0
2018-Feb-20 01:58N 30°01' W 093°59'0 0.0
2018-Feb-20 01:28N 30°01' W 093°59'0 0.0
2018-Feb-20 00:58N 30°01' W 093°59'0 0.0
2018-Feb-20 00:28N 30°01' W 093°59'0 0.0
2018-Feb-19 23:58N 30°01' W 093°59'0 0.0
2018-Feb-19 23:28N 30°01' W 093°59'0 0.0
2018-Feb-19 22:58N 30°01' W 093°59'0 0.0
2018-Feb-19 22:28N 30°01' W 093°59'0 0.0
2018-Feb-19 21:58N 30°01' W 093°59'0 0.0
2018-Feb-19 21:22N 30°01' W 093°59'0 0.0
2018-Feb-19 20:58N 30°01' W 093°59'0 0.0
2018-Feb-19 20:28N 30°01' W 093°59'0 0.0
2018-Feb-19 19:58N 30°01' W 093°59'0 0.0
2018-Feb-19 19:28N 30°01' W 093°59'0 0.0
2018-Feb-19 18:58N 30°01' W 093°59'0 0.0
2018-Feb-19 18:28N 30°01' W 093°59'0 0.0
2018-Feb-19 17:58N 30°01' W 093°59'0 0.0
2018-Feb-19 17:28N 30°01' W 093°59'0 0.0
2018-Feb-19 16:58N 30°01' W 093°59'0 0.0
2018-Feb-19 16:28N 30°01' W 093°59'0 0.0
2018-Feb-19 15:58N 30°01' W 093°59'0 0.0
2018-Feb-19 15:28N 30°01' W 093°59'0 0.0
2018-Feb-19 14:58N 30°01' W 093°59'0 0.0
2018-Feb-19 14:28N 30°01' W 093°59'0 0.0
2018-Feb-19 13:55N 30°01' W 093°59'0 0.0
2018-Feb-19 13:28N 30°01' W 093°59'0 0.0
2018-Feb-19 12:58N 30°01' W 093°59'0 0.0
2018-Feb-19 12:25N 30°01' W 093°59'0 0.0
2018-Feb-19 11:58N 30°01' W 093°59'0 0.0
2018-Feb-19 11:28N 30°01' W 093°59'0 0.0
2018-Feb-19 10:58N 30°01' W 093°59'1 1.3
2018-Feb-19 10:30N 30°01' W 093°59'0 0.2
2018-Feb-19 10:00N 30°01' W 093°59'0 0.0
2018-Feb-19 09:30N 30°01' W 093°59'0 0.0
2018-Feb-19 09:00N 30°01' W 093°59'0 0.0
2018-Feb-19 08:24N 30°01' W 093°59'0 0.0
2018-Feb-19 08:00N 30°01' W 093°59'0 0.0
2018-Feb-19 07:30N 30°01' W 093°59'0 0.0
2018-Feb-19 07:00N 30°01' W 093°59'0 0.0
2018-Feb-19 06:30N 30°01' W 093°59'0 0.0
2018-Feb-19 06:00N 30°01' W 093°59'0 0.0
2018-Feb-19 05:30N 30°01' W 093°59'0 0.0
2018-Feb-19 05:00N 30°01' W 093°59'0 0.0
2018-Feb-19 04:30N 30°01' W 093°59'0 0.0
2018-Feb-19 04:00N 30°01' W 093°59'0 0.0
2018-Feb-19 03:30N 30°01' W 093°59'0 0.0
2018-Feb-19 03:00N 30°01' W 093°59'0 0.0
2018-Feb-19 02:30N 30°01' W 093°59'0 0.0
2018-Feb-19 02:00N 30°01' W 093°59'0 0.0
2018-Feb-19 01:30N 30°01' W 093°59'0 0.0
2018-Feb-19 01:00N 30°01' W 093°59'0 0.0
2018-Feb-19 00:30N 30°01' W 093°59'0 0.0
2018-Feb-18 23:59N 30°01' W 093°59'0 0.0
2018-Feb-18 23:30N 30°01' W 093°59'0 0.0
2018-Feb-18 23:00N 30°01' W 093°59'0 0.0
2018-Feb-18 22:30N 30°01' W 093°59'0 0.0
2018-Feb-18 22:00N 30°01' W 093°59'0 0.0
2018-Feb-18 21:30N 30°01' W 093°59'0 0.0
2018-Feb-18 20:58N 30°01' W 093°59'0 0.0
2018-Feb-18 20:30N 30°01' W 093°59'0 0.0
2018-Feb-18 20:00N 30°01' W 093°59'0 0.0
2018-Feb-18 19:30N 30°01' W 093°59'0 0.0
2018-Feb-18 19:00N 30°01' W 093°59'0 0.0
2018-Feb-18 18:30N 30°01' W 093°59'0 0.0
2018-Feb-18 18:00N 30°01' W 093°59'0 0.0
2018-Feb-18 17:30N 30°01' W 093°59'0 0.5
2018-Feb-18 17:00N 30°01' W 093°59'1 2.9
2018-Feb-18 16:30N 30°01' W 093°57'3 6.9
2018-Feb-18 16:00N 29°59' W 093°54'3 5.2
2018-Feb-18 15:30N 29°58' W 093°51'3 6.6
2018-Feb-18 15:00N 29°59' W 093°47'1 1.1
2018-Feb-18 14:30N 29°60' W 093°47'0 0.9
2018-Feb-18 14:00N 29°60' W 093°46'0 0.0
2018-Feb-18 13:30N 29°60' W 093°46'0 0.0
2018-Feb-18 13:00N 29°60' W 093°46'0 0.0
2018-Feb-18 12:30N 29°60' W 093°46'0 0.0
2018-Feb-18 12:00N 29°60' W 093°46'0 0.0
2018-Feb-18 11:29N 29°60' W 093°46'0 0.0
2018-Feb-18 11:00N 29°60' W 093°46'0 0.0
2018-Feb-18 10:30N 29°60' W 093°46'0 0.0
2018-Feb-18 09:58N 29°60' W 093°46'0 0.0
2018-Feb-18 09:29N 29°60' W 093°46'0 0.0
2018-Feb-18 09:00N 29°60' W 093°46'0 0.0
2018-Feb-18 08:30N 29°60' W 093°46'0 0.0
2018-Feb-18 08:00N 29°60' W 093°46'0 0.0
2018-Feb-18 07:30N 29°60' W 093°46'0 0.0
2018-Feb-18 07:00N 29°60' W 093°46'0 0.0
2018-Feb-18 06:30N 29°60' W 093°46'0 0.0
2018-Feb-18 06:00N 29°60' W 093°46'0 0.0
2018-Feb-18 05:30N 29°60' W 093°46'0 0.0
2018-Feb-18 05:00N 29°60' W 093°46'0 0.0
2018-Feb-18 04:30N 29°60' W 093°46'0 0.0
2018-Feb-18 04:00N 29°60' W 093°46'0 0.0
2018-Feb-18 03:28N 29°60' W 093°46'0 0.0
2018-Feb-18 03:00N 29°60' W 093°46'0 0.0
2018-Feb-18 02:30N 29°60' W 093°46'0 0.1
2018-Feb-18 02:00N 29°60' W 093°46'0 0.4
2018-Feb-18 01:30N 29°60' W 093°46'2 3.6
2018-Feb-18 01:00N 30°01' W 093°45'3 6.3
2018-Feb-18 00:30N 30°03' W 093°42'3 6.7
2018-Feb-18 00:00N 30°04' W 093°39'3 6.5
2018-Feb-17 23:29N 30°04' W 093°35'3 6.0
2018-Feb-17 23:00N 30°04' W 093°31'3 6.3
2018-Feb-17 22:30N 30°04' W 093°28'3 6.1
2018-Feb-17 22:00N 30°04' W 093°24'2 4.8
2018-Feb-17 21:30N 30°04' W 093°21'2 4.4
2018-Feb-17 21:00N 30°05' W 093°20'2 3.8
2018-Feb-17 20:30N 30°05' W 093°17'2 3.3
2018-Feb-17 20:00N 30°04' W 093°16'1 1.3
2018-Feb-17 19:30N 30°04' W 093°16'0 0.1
2018-Feb-17 19:00N 30°03' W 093°16'0 0.0
2018-Feb-17 18:30N 30°03' W 093°16'0 0.0
2018-Feb-17 18:00N 30°03' W 093°16'1 2.0
2018-Feb-17 17:30N 30°02' W 093°16'3 5.8
2018-Feb-17 17:00N 30°00' W 093°14'3 5.9
2018-Feb-17 16:30N 29°58' W 093°11'3 6.2
2018-Feb-17 16:00N 29°56' W 093°08'12 1.1
2018-Feb-17 05:20N 29°56' W 092°54'29 4.3
2018-Feb-16 22:34N 29°51' W 092°22'0 2.3
2018-Feb-16 22:30N 29°51' W 092°21'3 5.3
2018-Feb-16 21:59N 29°50' W 092°18'2 3.8
2018-Feb-16 21:30N 29°49' W 092°17'3 5.8
2018-Feb-16 21:00N 29°48' W 092°14'2 3.9
2018-Feb-16 20:30N 29°47' W 092°12'2 4.5
2018-Feb-16 20:00N 29°47' W 092°09'3 6.1
2018-Feb-16 19:30N 29°48' W 092°06'3 6.1
2018-Feb-16 19:00N 29°49' W 092°03'  
2018-Feb-12 17:28N 29°50' W 091°59'2 4.4
2018-Feb-12 17:00N 29°49' W 092°01'2 4.7
2018-Feb-12 16:30N 29°48' W 092°04'2 4.7
2018-Feb-12 16:00N 29°48' W 092°06'2 3.9
2018-Feb-12 15:30N 29°47' W 092°09'2 4.7
2018-Feb-12 15:00N 29°47' W 092°11'2 4.9
2018-Feb-12 14:30N 29°48' W 092°14'2 3.7
2018-Feb-12 14:01N 29°48' W 092°16'2 4.6
2018-Feb-12 13:30N 29°50' W 092°18'39 4.3
2018-Feb-12 04:32N 29°56' W 093°02'0 4.5
2018-Feb-12 04:26N 29°56' W 093°02'2 3.8
2018-Feb-12 03:55N 29°56' W 093°05'2 4.3
2018-Feb-12 03:30N 29°56' W 093°07'2 4.4
2018-Feb-12 02:58N 29°56' W 093°09'2 3.5
2018-Feb-12 02:29N 29°57' W 093°11'2 3.4
2018-Feb-12 02:00N 29°59' W 093°12'2 4.3
2018-Feb-12 01:29N 30°00' W 093°14'2 3.6
2018-Feb-12 01:00N 30°02' W 093°15'2 3.4
2018-Feb-12 00:30N 30°03' W 093°16'2 4.3
2018-Feb-12 00:00N 30°05' W 093°17'2 3.4
2018-Feb-11 23:30N 30°06' W 093°18'2 4.6
2018-Feb-11 23:00N 30°05' W 093°20'2 3.4
2018-Feb-11 22:30N 30°04' W 093°22'2 4.3
2018-Feb-11 22:00N 30°04' W 093°24'2 3.3
2018-Feb-11 21:29N 30°04' W 093°27'2 4.3
2018-Feb-11 20:54N 30°04' W 093°29'2 4.3
2018-Feb-11 20:29N 30°04' W 093°31'10 4.0
2018-Feb-11 17:53N 30°03' W 093°43'2 4.1
2018-Feb-11 17:30N 30°02' W 093°44'2 4.4
2018-Feb-11 16:58N 30°00' W 093°46'2 4.3
2018-Feb-11 16:28N 29°59' W 093°48'2 5.1
2018-Feb-11 16:00N 29°58' W 093°51'2 4.7
2018-Feb-11 15:30N 29°59' W 093°54'3 6.5
2018-Feb-11 15:00N 30°00' W 093°57'2 3.6
2018-Feb-11 14:30N 30°01' W 093°59'0 0.3
2018-Feb-11 14:00N 30°01' W 093°59'0 0.0
2018-Feb-11 13:30N 30°01' W 093°59'  

Dump ship's entire track history